createdAt,value
2018-12-21T00:00:39.245Z,3.90
2018-12-21T00:03:19.577Z,4.63
2018-12-21T00:06:08.064Z,4.67
2018-12-21T00:08:55.627Z,4.17
2018-12-21T00:11:33.451Z,4.97
2018-12-21T00:17:24.350Z,4.10
2018-12-21T00:23:28.274Z,4.50
2018-12-21T00:26:30.979Z,4.53
2018-12-21T00:31:59.546Z,4.33
2018-12-21T00:40:30.862Z,4.60
2018-12-21T00:43:10.927Z,4.63
2018-12-21T00:45:49.807Z,4.10
2018-12-21T00:48:24.604Z,3.90
2018-12-21T00:50:59.570Z,3.83
2018-12-21T00:53:34.583Z,4.60
2018-12-21T00:56:22.825Z,3.87
2018-12-21T00:58:57.747Z,4.03
2018-12-21T01:01:32.655Z,3.63
2018-12-21T01:04:07.771Z,3.07
2018-12-21T01:06:42.880Z,3.17
2018-12-21T01:09:18.139Z,3.40
2018-12-21T01:11:53.356Z,3.40
2018-12-21T01:14:28.444Z,3.47
2018-12-21T01:17:03.521Z,3.03
2018-12-21T01:19:38.898Z,3.40
2018-12-21T01:22:14.048Z,2.60
2018-12-21T01:24:49.046Z,2.37
2018-12-21T01:27:24.795Z,2.70
2018-12-21T01:29:59.809Z,3.00
2018-12-21T01:32:34.521Z,2.20
2018-12-21T01:35:09.473Z,2.13
2018-12-21T01:37:44.836Z,2.00
2018-12-21T01:40:19.682Z,2.10
2018-12-21T01:42:54.411Z,1.97
2018-12-21T01:45:29.271Z,1.57
2018-12-21T01:48:04.160Z,1.93
2018-12-21T01:50:39.150Z,1.70
2018-12-21T01:53:14.213Z,2.23
2018-12-21T01:55:49.373Z,1.87
2018-12-21T01:58:24.170Z,1.70
2018-12-21T02:00:58.912Z,1.87
2018-12-21T02:03:33.539Z,1.67
2018-12-21T02:06:08.470Z,1.73
2018-12-21T02:08:43.459Z,1.67
2018-12-21T02:11:18.483Z,1.60
2018-12-21T02:13:53.606Z,1.73
2018-12-21T02:16:29.105Z,1.67
2018-12-21T02:19:04.146Z,2.03
2018-12-21T02:21:39.699Z,2.00
2018-12-21T02:24:14.742Z,1.47
2018-12-21T02:26:49.811Z,1.80
2018-12-21T02:29:25.663Z,2.07
2018-12-21T02:32:00.568Z,2.00
2018-12-21T02:34:35.594Z,1.60
2018-12-21T02:37:11.323Z,1.80
2018-12-21T02:39:46.208Z,1.70
2018-12-21T02:42:21.149Z,1.70
2018-12-21T02:44:56.320Z,1.63
2018-12-21T02:47:31.541Z,1.60
2018-12-21T02:50:06.831Z,2.63
2018-12-21T02:52:42.227Z,1.90
2018-12-21T02:55:17.162Z,2.97
2018-12-21T02:57:52.089Z,2.10
2018-12-21T03:00:39.090Z,2.47
2018-12-21T03:03:14.106Z,1.90
2018-12-21T03:05:49.661Z,2.10
2018-12-21T03:08:24.545Z,2.60
2018-12-21T03:10:59.543Z,2.37
2018-12-21T03:13:34.408Z,2.60
2018-12-21T03:16:09.624Z,2.23
2018-12-21T03:18:44.662Z,2.43
2018-12-21T03:21:19.907Z,2.80
2018-12-21T03:23:54.956Z,2.30
2018-12-21T03:26:29.649Z,3.03
2018-12-21T03:29:04.620Z,2.33
2018-12-21T03:31:40.124Z,2.00
2018-12-21T03:34:14.917Z,2.53
2018-12-21T03:36:50.075Z,2.60
2018-12-21T03:39:25.218Z,2.30
2018-12-21T03:42:00.100Z,2.10
2018-12-21T03:44:35.107Z,2.40
2018-12-21T03:47:10.032Z,2.30
2018-12-21T03:49:45.019Z,2.57
2018-12-21T03:52:24.257Z,2.60
2018-12-21T03:54:56.693Z,2.57
2018-12-21T03:57:31.894Z,3.20
2018-12-21T04:00:07.025Z,2.80
2018-12-21T04:02:41.731Z,3.27
2018-12-21T04:05:16.795Z,2.90
2018-12-21T04:07:52.441Z,3.37
2018-12-21T04:10:27.162Z,3.60
2018-12-21T04:13:02.048Z,3.20
2018-12-21T04:15:36.806Z,2.60
2018-12-21T04:18:11.608Z,3.00
2018-12-21T04:20:46.626Z,3.57
2018-12-21T04:23:21.575Z,3.40
2018-12-21T04:25:56.404Z,3.07
2018-12-21T04:28:31.533Z,3.70
2018-12-21T04:31:06.818Z,2.80
2018-12-21T04:33:42.194Z,3.30
2018-12-21T04:36:17.233Z,2.43
2018-12-21T04:38:52.308Z,3.20
2018-12-21T04:41:27.738Z,3.30
2018-12-21T04:44:02.814Z,3.57
2018-12-21T04:46:38.091Z,2.90
2018-12-21T04:49:13.045Z,2.93
2018-12-21T04:51:48.018Z,3.37
2018-12-21T04:54:22.900Z,3.43
2018-12-21T04:56:57.805Z,3.23
2018-12-21T04:59:32.621Z,3.17
2018-12-21T05:02:07.632Z,2.63
2018-12-21T05:04:42.276Z,3.07
2018-12-21T05:07:17.129Z,3.33
2018-12-21T05:09:52.064Z,3.27
2018-12-21T05:12:26.817Z,2.70
2018-12-21T05:15:01.681Z,3.23
2018-12-21T05:17:36.449Z,3.20
2018-12-21T05:20:11.395Z,2.80
2018-12-21T05:22:52.293Z,3.27
2018-12-21T05:25:23.688Z,3.23
2018-12-21T05:27:58.525Z,2.70
2018-12-21T05:30:33.325Z,2.90
2018-12-21T05:33:08.206Z,2.80
2018-12-21T05:35:42.843Z,3.03
2018-12-21T05:38:17.843Z,2.97
2018-12-21T05:40:52.944Z,2.47
2018-12-21T05:43:27.804Z,2.67
2018-12-21T05:46:02.666Z,3.83
2018-12-21T05:48:37.460Z,2.60
2018-12-21T05:51:12.456Z,2.90
2018-12-21T05:53:47.207Z,3.50
2018-12-21T05:56:21.991Z,3.73
2018-12-21T05:58:57.259Z,2.97
2018-12-21T06:01:32.916Z,3.47
2018-12-21T06:04:07.930Z,3.17
2018-12-21T06:06:42.882Z,3.50
2018-12-21T06:09:21.497Z,3.87
2018-12-21T06:11:56.384Z,3.33
2018-12-21T06:14:31.119Z,3.40
2018-12-21T06:17:06.096Z,3.40
2018-12-21T06:19:41.092Z,4.10
2018-12-21T06:22:36.557Z,3.63
2018-12-21T06:25:11.352Z,3.57
2018-12-21T06:27:50.158Z,3.50
2018-12-21T06:30:25.182Z,2.40
2018-12-21T06:33:00.131Z,2.60
2018-12-21T06:35:39.068Z,2.60
2018-12-21T06:38:13.839Z,2.33
2018-12-21T06:40:49.077Z,2.47
2018-12-21T06:43:24.087Z,3.80
2018-12-21T06:45:59.457Z,3.10
2018-12-21T06:48:34.388Z,2.93
2018-12-21T06:51:09.140Z,2.63
2018-12-21T06:53:44.236Z,3.20
2018-12-21T06:56:19.209Z,3.33
2018-12-21T06:58:54.097Z,2.80
2018-12-21T07:01:29.219Z,2.93
2018-12-21T07:04:04.663Z,2.83
2018-12-21T07:06:40.176Z,3.20
2018-12-21T07:09:16.345Z,2.43
2018-12-21T07:11:51.729Z,2.50
2018-12-21T07:14:26.421Z,2.70
2018-12-21T07:17:01.496Z,3.00
2018-12-21T07:19:36.385Z,3.33
2018-12-21T07:22:11.086Z,2.93
2018-12-21T07:24:46.333Z,2.43
2018-12-21T07:27:21.370Z,2.63
2018-12-21T07:29:55.816Z,2.40
2018-12-21T07:32:30.192Z,2.50
2018-12-21T07:35:06.000Z,2.53
2018-12-21T07:37:40.689Z,3.23
2018-12-21T07:40:15.008Z,3.20
2018-12-21T07:42:56.241Z,2.53
2018-12-21T07:45:30.762Z,3.20
2018-12-21T07:48:05.468Z,2.90
2018-12-21T07:50:40.017Z,2.87
2018-12-21T07:53:14.342Z,2.90
2018-12-21T07:55:48.996Z,3.60
2018-12-21T07:58:23.689Z,3.40
2018-12-21T08:00:58.244Z,2.80
2018-12-21T08:03:32.829Z,3.20
2018-12-21T08:06:07.461Z,3.10
2018-12-21T08:08:41.943Z,3.73
2018-12-21T08:11:16.610Z,3.37
2018-12-21T08:13:51.687Z,3.40
2018-12-21T08:16:26.151Z,4.07
2018-12-21T08:19:00.821Z,2.90
2018-12-21T08:21:35.376Z,3.93
2018-12-21T08:24:09.832Z,3.20
2018-12-21T08:26:44.428Z,4.47
2018-12-21T08:29:19.000Z,3.63
2018-12-21T08:31:53.409Z,4.03
2018-12-21T08:34:28.239Z,4.07
2018-12-21T08:37:03.338Z,3.80
2018-12-21T08:39:39.128Z,3.80
2018-12-21T08:42:16.104Z,4.00
2018-12-21T08:44:51.261Z,4.30
2018-12-21T08:47:27.085Z,4.50
2018-12-21T08:50:05.402Z,4.80
2018-12-21T08:52:40.472Z,4.00
2018-12-21T08:55:15.144Z,4.60
2018-12-21T08:57:49.570Z,4.70
2018-12-21T09:00:24.156Z,5.13
2018-12-21T09:02:58.892Z,4.80
2018-12-21T09:05:33.427Z,4.67
2018-12-21T09:08:08.048Z,5.17
2018-12-21T09:10:42.459Z,5.00
2018-12-21T09:13:17.919Z,4.63
2018-12-21T09:15:52.953Z,4.70
2018-12-21T09:18:27.563Z,4.27
2018-12-21T09:21:02.128Z,4.73
2018-12-21T09:23:39.748Z,4.90
2018-12-21T09:26:14.354Z,4.40
2018-12-21T09:28:55.480Z,4.27
2018-12-21T09:31:30.000Z,4.77
2018-12-21T09:34:04.691Z,4.20
2018-12-21T09:36:39.454Z,3.63
2018-12-21T09:39:14.075Z,3.27
2018-12-21T09:41:48.718Z,3.33
2018-12-21T09:44:23.492Z,3.20
2018-12-21T09:46:59.348Z,3.00
2018-12-21T09:49:41.058Z,3.67
2018-12-21T09:52:15.833Z,2.93
2018-12-21T09:54:50.536Z,3.30
2018-12-21T09:57:25.117Z,3.13
2018-12-21T09:59:59.583Z,3.17
2018-12-21T10:02:35.805Z,2.60
2018-12-21T10:05:14.542Z,2.80
2018-12-21T10:07:49.400Z,2.80
2018-12-21T10:10:24.031Z,2.90
2018-12-21T10:12:58.696Z,2.50
2018-12-21T10:15:33.445Z,2.43
2018-12-21T10:18:08.181Z,2.17
2018-12-21T10:20:45.719Z,2.10
2018-12-21T10:23:20.612Z,2.47
2018-12-21T10:25:55.136Z,2.13
2018-12-21T10:28:30.882Z,1.73
2018-12-21T10:31:05.414Z,1.67
2018-12-21T10:33:40.193Z,1.70
2018-12-21T10:36:14.717Z,1.73
2018-12-21T10:38:49.233Z,1.80
2018-12-21T10:41:23.783Z,1.57
2018-12-21T10:43:58.274Z,2.47
2018-12-21T10:46:33.564Z,1.93
2018-12-21T10:49:08.006Z,1.77
2018-12-21T10:51:43.139Z,2.20
2018-12-21T10:54:17.519Z,1.80
2018-12-21T10:56:52.435Z,2.03
2018-12-21T10:59:27.008Z,1.40
2018-12-21T11:02:01.572Z,2.13
2018-12-21T11:04:36.264Z,1.80
2018-12-21T11:07:10.824Z,1.70
2018-12-21T11:09:45.493Z,1.40
2018-12-21T11:12:20.023Z,1.87
2018-12-21T11:14:54.611Z,1.63
2018-12-21T11:17:29.151Z,1.87
2018-12-21T11:20:04.028Z,1.40
2018-12-21T11:22:38.454Z,2.00
2018-12-21T11:25:13.733Z,2.00
2018-12-21T11:27:48.259Z,2.60
2018-12-21T11:30:22.943Z,1.53
2018-12-21T11:32:57.576Z,1.67
2018-12-21T11:35:32.247Z,1.60
2018-12-21T11:38:06.728Z,1.43
2018-12-21T11:40:41.931Z,1.80
2018-12-21T11:43:16.476Z,1.77
2018-12-21T11:45:51.004Z,1.90
2018-12-21T11:48:25.540Z,1.67
2018-12-21T11:51:00.159Z,1.43
2018-12-21T11:53:34.658Z,1.23
2018-12-21T11:56:09.388Z,1.60
2018-12-21T11:58:44.165Z,1.40
2018-12-21T12:01:18.622Z,1.53
2018-12-21T12:03:53.176Z,1.23
2018-12-21T12:06:27.817Z,0.97
2018-12-21T12:09:06.379Z,1.37
2018-12-21T12:11:38.895Z,1.40
2018-12-21T12:14:13.419Z,1.50
2018-12-21T12:16:48.092Z,1.50
2018-12-21T12:19:23.490Z,1.23
2018-12-21T12:21:57.967Z,1.20
2018-12-21T12:24:32.583Z,1.77
2018-12-21T12:27:07.040Z,1.43
2018-12-21T12:29:41.547Z,1.47
2018-12-21T12:32:16.190Z,1.40
2018-12-21T12:34:50.557Z,1.70
2018-12-21T12:37:26.241Z,1.77
2018-12-21T12:40:00.799Z,1.23
2018-12-21T12:42:35.589Z,1.63
2018-12-21T12:45:10.826Z,1.20
2018-12-21T12:47:45.447Z,1.43
2018-12-21T12:50:20.175Z,1.27
2018-12-21T12:52:54.702Z,1.77
2018-12-21T12:55:29.344Z,1.13
2018-12-21T12:58:03.937Z,1.50
2018-12-21T13:00:38.443Z,1.40
2018-12-21T13:03:14.296Z,1.40
2018-12-21T13:05:49.804Z,1.30
2018-12-21T13:08:24.511Z,1.60
2018-12-21T13:11:00.384Z,1.53
2018-12-21T13:13:35.039Z,1.40
2018-12-21T13:16:09.552Z,1.97
2018-12-21T13:18:44.152Z,1.37
2018-12-21T13:21:18.815Z,1.20
2018-12-21T13:23:53.293Z,1.50
2018-12-21T13:26:27.885Z,1.30
2018-12-21T13:29:02.462Z,1.50
2018-12-21T13:31:37.032Z,1.27
2018-12-21T13:34:11.568Z,1.60
2018-12-21T13:36:46.056Z,1.23
2018-12-21T13:39:20.493Z,1.80
2018-12-21T13:41:55.667Z,1.13
2018-12-21T13:44:30.198Z,1.40
2018-12-21T13:47:04.783Z,0.97
2018-12-21T13:49:39.308Z,1.00
2018-12-21T13:52:14.001Z,1.60
2018-12-21T13:54:48.470Z,1.40
2018-12-21T13:57:23.036Z,1.20
2018-12-21T13:59:57.887Z,0.97
2018-12-21T14:02:33.358Z,0.90
2018-12-21T14:05:08.249Z,1.10
2018-12-21T14:07:43.057Z,1.10
2018-12-21T14:10:18.219Z,0.80
2018-12-21T14:12:52.912Z,1.23
2018-12-21T14:15:27.681Z,1.33
2018-12-21T14:18:02.147Z,1.10
2018-12-21T14:20:36.554Z,1.53
2018-12-21T14:23:11.158Z,1.23
2018-12-21T14:25:45.747Z,1.10
2018-12-21T14:28:20.171Z,1.20
2018-12-21T14:30:54.861Z,1.67
2018-12-21T14:33:29.405Z,1.43
2018-12-21T14:36:04.956Z,1.40
2018-12-21T14:38:39.584Z,1.67
2018-12-21T14:41:15.144Z,1.83
2018-12-21T14:43:57.211Z,1.80
2018-12-21T14:46:32.649Z,1.90
2018-12-21T14:49:07.125Z,2.27
2018-12-21T14:51:41.493Z,2.27
2018-12-21T14:54:16.027Z,2.50
2018-12-21T14:56:50.696Z,2.03
2018-12-21T14:59:25.191Z,2.40
2018-12-21T15:01:59.738Z,3.03
2018-12-21T15:04:40.963Z,2.47
2018-12-21T15:07:15.439Z,3.10
2018-12-21T15:09:50.120Z,3.60
2018-12-21T15:12:24.655Z,3.70
2018-12-21T15:14:59.251Z,3.17
2018-12-21T15:17:33.862Z,3.77
2018-12-21T15:20:10.320Z,3.70
2018-12-21T15:22:44.814Z,3.70
2018-12-21T15:25:19.332Z,3.90
2018-12-21T15:27:53.787Z,5.30
2018-12-21T15:30:28.495Z,4.07
2018-12-21T15:33:03.133Z,4.17
2018-12-21T15:35:37.627Z,3.63
2018-12-21T15:38:12.235Z,3.83
2018-12-21T15:40:47.766Z,3.17
2018-12-21T15:43:22.382Z,3.53
2018-12-21T15:45:59.496Z,2.90
2018-12-21T15:48:34.067Z,2.70
2018-12-21T15:51:09.521Z,2.80
2018-12-21T15:53:44.230Z,2.63
2018-12-21T15:56:18.720Z,2.60
2018-12-21T15:58:54.427Z,2.00
2018-12-21T16:01:36.619Z,2.50
2018-12-21T16:04:05.463Z,2.57
2018-12-21T16:06:40.268Z,2.67
2018-12-21T16:09:14.948Z,1.63
2018-12-21T16:11:49.640Z,1.50
2018-12-21T16:14:24.185Z,2.13
2018-12-21T16:16:58.722Z,1.50
2018-12-21T16:19:34.283Z,1.27
2018-12-21T16:22:08.919Z,1.17
2018-12-21T16:24:43.480Z,0.93
2018-12-21T16:27:18.131Z,1.37
2018-12-21T16:29:53.596Z,0.80
2018-12-21T16:32:28.235Z,1.30
2018-12-21T16:35:03.583Z,1.27
2018-12-21T16:37:38.286Z,1.10
2018-12-21T16:40:12.884Z,1.63
2018-12-21T16:42:47.441Z,1.17
2018-12-21T16:45:22.061Z,1.27
2018-12-21T16:47:56.480Z,1.30
2018-12-21T16:50:31.151Z,1.30
2018-12-21T16:53:05.576Z,1.80
2018-12-21T16:55:40.063Z,1.23
2018-12-21T16:58:14.603Z,1.10
2018-12-21T17:00:49.131Z,2.10
2018-12-21T17:03:27.880Z,3.00
2018-12-21T17:06:06.356Z,1.77
2018-12-21T17:08:40.950Z,2.33
2018-12-21T17:11:15.599Z,2.57
2018-12-21T17:13:50.272Z,2.60
2018-12-21T17:16:24.932Z,3.00
2018-12-21T17:19:08.264Z,2.90
2018-12-21T17:21:42.682Z,2.53
2018-12-21T17:24:17.287Z,2.90
2018-12-21T17:26:52.419Z,3.10
2018-12-21T17:29:28.792Z,3.10
2018-12-21T17:32:03.643Z,2.93
2018-12-21T17:34:38.169Z,3.10
2018-12-21T17:37:12.742Z,3.13
2018-12-21T17:39:47.258Z,2.73
2018-12-21T17:42:21.879Z,2.80
2018-12-21T17:44:56.410Z,2.80
2018-12-21T17:47:30.985Z,3.10
2018-12-21T17:50:07.474Z,2.50
2018-12-21T17:52:42.153Z,2.70
2018-12-21T17:55:16.830Z,2.73
2018-12-21T17:57:51.348Z,2.60
2018-12-21T18:00:25.993Z,2.97
2018-12-21T18:03:00.447Z,3.70
2018-12-21T18:05:34.978Z,3.17
2018-12-21T18:08:09.726Z,3.07
2018-12-21T18:10:44.147Z,3.43
2018-12-21T18:13:18.839Z,3.50
2018-12-21T18:15:53.364Z,3.43
2018-12-21T18:18:27.830Z,3.40
2018-12-21T18:21:02.961Z,3.90
2018-12-21T18:23:38.792Z,3.23
2018-12-21T18:26:13.424Z,3.10
2018-12-21T18:28:47.836Z,3.50
2018-12-21T18:31:30.477Z,3.50
2018-12-21T18:34:08.735Z,4.10
2018-12-21T18:36:45.443Z,3.40
2018-12-21T18:39:19.840Z,3.30
2018-12-21T18:41:54.419Z,3.40
2018-12-21T18:44:29.616Z,3.90
2018-12-21T18:47:04.116Z,3.67
2018-12-21T18:49:38.425Z,3.60
2018-12-21T18:52:13.171Z,3.43
2018-12-21T18:54:49.689Z,3.63
2018-12-21T18:57:24.294Z,3.67
2018-12-21T18:59:58.880Z,3.13
2018-12-21T19:02:34.543Z,3.70
2018-12-21T19:05:10.026Z,3.53
2018-12-21T19:07:46.832Z,3.90
2018-12-21T19:10:21.468Z,3.77
2018-12-21T19:12:56.103Z,2.50
2018-12-21T19:15:30.628Z,2.80
2018-12-21T19:18:05.292Z,2.10
2018-12-21T19:20:39.913Z,2.50
2018-12-21T19:23:14.317Z,2.33
2018-12-21T19:25:48.883Z,2.70
2018-12-21T19:28:23.703Z,2.60
2018-12-21T19:30:58.306Z,2.50
2018-12-21T19:33:32.960Z,3.13
2018-12-21T19:36:07.364Z,2.83
2018-12-21T19:38:41.877Z,2.43
2018-12-21T19:41:16.354Z,2.07
2018-12-21T19:43:51.791Z,2.00
2018-12-21T19:46:26.296Z,2.80
2018-12-21T19:49:00.838Z,1.67
2018-12-21T19:51:35.516Z,2.20
2018-12-21T19:54:14.091Z,2.50
2018-12-21T19:57:07.923Z,1.97
2018-12-21T19:59:42.577Z,2.60
2018-12-21T20:02:17.037Z,2.10
2018-12-21T20:04:51.680Z,2.37
2018-12-21T20:07:29.296Z,2.90
2018-12-21T20:10:04.290Z,2.53
2018-12-21T20:12:38.843Z,3.10
2018-12-21T20:15:13.444Z,3.03
2018-12-21T20:17:48.042Z,2.90
2018-12-21T20:20:22.566Z,3.30
2018-12-21T20:22:57.160Z,3.33
2018-12-21T20:25:33.668Z,4.23
2018-12-21T20:28:08.086Z,3.07
2018-12-21T20:30:42.649Z,3.63
2018-12-21T20:33:17.145Z,3.50
2018-12-21T20:35:51.761Z,3.83
2018-12-21T20:38:26.318Z,4.03
2018-12-21T20:41:03.853Z,3.80
2018-12-21T20:43:38.603Z,3.63
2018-12-21T20:46:13.271Z,4.13
2018-12-21T20:48:47.803Z,3.23
2018-12-21T20:51:23.540Z,3.70
2018-12-21T20:53:58.125Z,4.93
2018-12-21T20:56:32.751Z,3.83
2018-12-21T20:59:10.855Z,3.13
2018-12-21T21:01:45.343Z,4.47
2018-12-21T21:04:19.853Z,3.37
2018-12-21T21:06:54.495Z,3.90
2018-12-21T21:09:29.090Z,4.00
2018-12-21T21:12:03.884Z,3.73
2018-12-21T21:14:38.635Z,3.90
2018-12-21T21:17:13.027Z,4.50
2018-12-21T21:19:47.664Z,4.03
2018-12-21T21:22:22.291Z,5.83
2018-12-21T21:24:57.152Z,4.63
2018-12-21T21:27:31.608Z,5.30
2018-12-21T21:30:10.457Z,5.80
2018-12-21T21:32:44.972Z,6.70
2018-12-21T21:35:19.503Z,5.93
2018-12-21T21:37:54.089Z,5.40
2018-12-21T21:40:29.851Z,5.23
2018-12-21T21:43:04.740Z,5.70
2018-12-21T21:45:39.372Z,5.13
2018-12-21T21:48:15.600Z,6.47
2018-12-21T21:50:50.168Z,5.53
2018-12-21T21:53:24.756Z,8.10
2018-12-21T21:56:00.213Z,5.47
2018-12-21T21:58:34.805Z,5.07
2018-12-21T22:01:09.371Z,6.50
2018-12-21T22:03:47.093Z,6.90
2018-12-21T22:06:21.670Z,6.53
2018-12-21T22:08:56.371Z,7.33
2018-12-21T22:11:30.919Z,5.90
2018-12-21T22:14:05.416Z,6.07
2018-12-21T22:16:39.979Z,5.60
2018-12-21T22:19:14.760Z,6.67
2018-12-21T22:21:49.671Z,5.10
2018-12-21T22:24:24.115Z,4.33
2018-12-21T22:26:59.765Z,4.03
2018-12-21T22:29:34.573Z,4.00
2018-12-21T22:32:09.297Z,1.90
2018-12-21T22:34:43.815Z,2.00
2018-12-21T22:37:22.054Z,2.60
2018-12-21T22:40:00.509Z,1.97
2018-12-21T22:42:36.102Z,2.03
2018-12-21T22:45:12.877Z,1.50
2018-12-21T22:47:47.683Z,1.20
2018-12-21T22:50:28.175Z,1.70
2018-12-21T22:53:02.789Z,1.77
2018-12-21T22:55:37.645Z,1.90
2018-12-21T22:58:12.568Z,1.63
2018-12-21T23:00:47.725Z,1.97
2018-12-21T23:03:28.901Z,1.90
2018-12-21T23:06:03.674Z,1.40
2018-12-21T23:08:38.433Z,1.70
2018-12-21T23:11:13.155Z,2.10
2018-12-21T23:13:48.717Z,2.17
2018-12-21T23:16:25.847Z,1.90
2018-12-21T23:19:00.529Z,2.07
2018-12-21T23:21:35.027Z,2.03
2018-12-21T23:24:11.027Z,2.70
2018-12-21T23:26:45.965Z,2.03
2018-12-21T23:29:21.889Z,2.23
2018-12-21T23:31:58.727Z,1.93
2018-12-21T23:34:33.199Z,2.43
2018-12-21T23:37:07.725Z,2.10
2018-12-21T23:39:42.371Z,1.97
2018-12-21T23:42:19.514Z,2.23
2018-12-21T23:44:59.741Z,3.03
2018-12-21T23:47:34.415Z,2.57
2018-12-21T23:50:10.125Z,2.17
2018-12-21T23:52:46.543Z,2.07
2018-12-21T23:55:22.887Z,1.80
2018-12-21T23:57:57.501Z,1.93
